Terminal Aerodrome Forecast
Issued by NWS Bismarck, ND

Home | Current Version | Previous Version | Text Only | Print | Product List | Glossary On
Versions: 1 2 3 4 5 6 7 8 9 10 11 12 13 14 15 16 17
000
FTUS43 KBIS 171720
TAFBIS
TAF
KBIS 171720Z 1718/1818 VRB06KT P6SM SKC
     FM172000 19008KT P6SM FEW250
     FM180400 24006KT P6SM BKN090
     FM181600 27010KT P6SM OVC050=

USA.gov is the U.S. government's official web portal to all federal, state and local government web resources and services.